Time;durP1;ratioP1;P1;durP2;ratioP2;P2;SDS_P1;SDS_P2;PMS_P1;PMS_P2;Temp;Humidity;BMP_temperature;BMP_pressure;BME280_temperature;BME280_humidity;BME280_pressure;Samples;Min_cycle;Max_cycle;Signal;HPM_P1;HPM_P2
2022/08/19 00:01:23;;;;;;;76.05;47.90;;;;;;;;;;5091553;28;20044;-80
2022/08/19 00:04:00;;;;;;;74.93;46.58;;;;;;;;;;5089090;28;20052;-79
2022/08/19 00:06:28;;;;;;;79.28;48.22;;;;;;;;;;5088458;28;20041;-80
2022/08/19 00:08:55;;;;;;;78.20;48.10;;;;;;;;;;5087447;28;20078;-80
2022/08/19 00:11:27;;;;;;;75.93;48.75;;;;;;;;;;5077904;28;20116;-80
2022/08/19 00:13:56;;;;;;;81.90;50.40;;;;;;;;;;5107593;28;20066;-79
2022/08/19 00:16:30;;;;;;;76.93;49.72;;;;;;;;;;5106970;28;20072;-79
2022/08/19 00:18:56;;;;;;;77.97;49.60;;;;;;;;;;5107152;28;20131;-79
2022/08/19 00:21:24;;;;;;;77.85;49.03;;;;;;;;;;5105292;28;20040;-80
2022/08/19 00:23:50;;;;;;;75.80;46.50;;;;;;;;;;5105768;28;20047;-81
2022/08/19 00:26:17;;;;;;;71.78;46.13;;;;;;;;;;5106890;28;20128;-81
2022/08/19 00:28:43;;;;;;;75.22;48.03;;;;;;;;;;5106604;28;20237;-79
2022/08/19 00:31:10;;;;;;;75.65;48.13;;;;;;;;;;5107288;28;20067;-80
2022/08/19 00:33:36;;;;;;;80.30;50.65;;;;;;;;;;5107181;28;20073;-80
2022/08/19 00:36:09;;;;;;;80.85;49.83;;;;;;;;;;5107621;28;20048;-80
2022/08/19 00:38:36;;;;;;;79.28;50.97;;;;;;;;;;5107891;28;20048;-80
2022/08/19 00:41:06;;;;;;;77.65;49.30;;;;;;;;;;5108086;28;20134;-80
2022/08/19 00:43:35;;;;;;;79.95;49.90;;;;;;;;;;5111837;28;20059;-78
2022/08/19 00:46:05;;;;;;;80.22;49.50;;;;;;;;;;5116755;28;20043;-79
2022/08/19 00:48:33;;;;;;;79.57;49.25;;;;;;;;;;5114609;28;20294;-79
2022/08/19 00:51:00;;;;;;;80.82;50.03;;;;;;;;;;5107677;28;20060;-80
2022/08/19 00:53:31;;;;;;;77.05;47.95;;;;;;;;;;5106481;28;20097;-79
2022/08/19 00:55:59;;;;;;;79.40;48.30;;;;;;;;;;5089183;28;20044;-81
2022/08/19 00:58:28;;;;;;;84.60;48.63;;;;;;;;;;5106512;28;20133;-79
2022/08/19 01:00:54;;;;;;;85.32;49.92;;;;;;;;;;5107044;28;20054;-80
2022/08/19 01:03:21;;;;;;;80.45;48.47;;;;;;;;;;5106308;28;20032;-79
2022/08/19 01:05:49;;;;;;;77.10;47.75;;;;;;;;;;5108274;28;20512;-79
2022/08/19 01:08:17;;;;;;;76.32;47.35;;;;;;;;;;5108200;28;20040;-80
2022/08/19 01:10:45;;;;;;;81.25;47.15;;;;;;;;;;5103753;28;20057;-79
2022/08/19 01:13:14;;;;;;;81.93;47.92;;;;;;;;;;5089725;28;20097;-77
2022/08/19 01:15:44;;;;;;;80.10;47.22;;;;;;;;;;5098007;28;20049;-79
2022/08/19 01:18:13;;;;;;;76.88;45.95;;;;;;;;;;5068333;28;20049;-81
2022/08/19 01:20:40;;;;;;;73.78;45.30;;;;;;;;;;5085705;28;20041;-80
2022/08/19 01:23:06;;;;;;;75.32;44.05;;;;;;;;;;5088032;28;20051;-81
2022/08/19 01:25:46;;;;;;;74.90;45.40;;;;;;;;;;5084714;28;20066;-79
2022/08/19 01:28:17;;;;;;;79.43;46.90;;;;;;;;;;5103230;28;20416;-82
2022/08/19 01:30:59;;;;;;;77.80;46.47;;;;;;;;;;5083399;28;20052;-79
2022/08/19 01:33:26;;;;;;;79.70;47.35;;;;;;;;;;5105054;28;20048;-77
2022/08/19 01:35:52;;;;;;;77.60;46.92;;;;;;;;;;5104900;28;20032;-79
2022/08/19 01:38:21;;;;;;;83.10;47.90;;;;;;;;;;5105739;28;20044;-78
2022/08/19 01:40:47;;;;;;;84.55;48.05;;;;;;;;;;5103379;28;20404;-79
2022/08/19 01:43:14;;;;;;;85.97;48.65;;;;;;;;;;5092182;28;20719;-79
2022/08/19 01:45:40;;;;;;;84.97;49.05;;;;;;;;;;5073013;28;20075;-79
2022/08/19 01:48:07;;;;;;;85.68;48.83;;;;;;;;;;5093620;28;20480;-80
2022/08/19 01:50:34;;;;;;;88.38;49.28;;;;;;;;;;5095019;28;20075;-79
2022/08/19 01:53:05;;;;;;;80.95;48.13;;;;;;;;;;5095804;28;20087;-79
2022/08/19 01:55:34;;;;;;;82.05;47.30;;;;;;;;;;5069640;28;20079;-79
2022/08/19 01:58:06;;;;;;;76.93;46.20;;;;;;;;;;5101757;28;20051;-78
2022/08/19 02:00:34;;;;;;;81.63;47.67;;;;;;;;;;5097563;28;20079;-79
2022/08/19 02:03:03;;;;;;;80.00;47.20;;;;;;;;;;5098268;28;20047;-79
2022/08/19 02:05:29;;;;;;;78.57;47.17;;;;;;;;;;5098680;28;20079;-80
2022/08/19 02:07:56;;;;;;;85.55;48.05;;;;;;;;;;5099226;28;20075;-79
2022/08/19 02:10:23;;;;;;;82.97;48.15;;;;;;;;;;5101777;28;20409;-79
2022/08/19 02:12:50;;;;;;;78.10;48.28;;;;;;;;;;5083522;28;20056;-79
2022/08/19 02:15:19;;;;;;;81.10;47.78;;;;;;;;;;5084406;28;20052;-80
2022/08/19 02:17:46;;;;;;;83.55;49.67;;;;;;;;;;5084265;28;20087;-78
2022/08/19 02:20:15;;;;;;;85.53;50.53;;;;;;;;;;5084995;28;20072;-79
2022/08/19 02:22:42;;;;;;;84.97;49.30;;;;;;;;;;5084815;28;20051;-79
2022/08/19 02:25:14;;;;;;;84.82;48.88;;;;;;;;;;5084605;28;20482;-78
2022/08/19 02:27:41;;;;;;;86.57;51.47;;;;;;;;;;5086432;28;20045;-79
2022/08/19 02:30:10;;;;;;;91.82;52.72;;;;;;;;;;5086881;28;20078;-80
2022/08/19 02:32:39;;;;;;;94.65;51.80;;;;;;;;;;5086971;28;20049;-78
2022/08/19 02:35:13;;;;;;;92.88;49.53;;;;;;;;;;5087783;28;20465;-79
2022/08/19 02:40:26;;;;;;;84.70;50.08;;;;;;;;;;5086934;28;20052;-79
2022/08/19 02:42:53;;;;;;;87.78;49.40;;;;;;;;;;5087203;28;20048;-80
2022/08/19 02:45:20;;;;;;;91.65;51.72;;;;;;;;;;5088006;28;20059;-79
2022/08/19 02:47:46;;;;;;;94.47;51.72;;;;;;;;;;5086978;28;20082;-78
2022/08/19 02:50:14;;;;;;;94.40;53.00;;;;;;;;;;5087344;28;20113;-80
2022/08/19 02:52:40;;;;;;;97.30;52.00;;;;;;;;;;5070154;28;20045;-80
2022/08/19 02:55:07;;;;;;;104.18;54.58;;;;;;;;;;5095291;28;20044;-79
2022/08/19 02:57:35;;;;;;;103.63;55.45;;;;;;;;;;5101623;28;20055;-79
2022/08/19 03:00:06;;;;;;;98.63;53.42;;;;;;;;;;5108683;28;20047;-79
2022/08/19 03:02:33;;;;;;;94.63;53.47;;;;;;;;;;5108191;28;20052;-79
2022/08/19 03:05:02;;;;;;;93.25;51.45;;;;;;;;;;5108792;28;20055;-80
2022/08/19 03:07:28;;;;;;;109.65;55.58;;;;;;;;;;5108987;28;20071;-78
2022/08/19 03:09:57;;;;;;;92.25;51.78;;;;;;;;;;5110364;28;20056;-80
2022/08/19 03:12:24;;;;;;;103.25;54.70;;;;;;;;;;5091916;28;20055;-77
2022/08/19 03:14:51;;;;;;;100.85;54.20;;;;;;;;;;5091217;28;20517;-77
2022/08/19 03:17:18;;;;;;;105.35;54.53;;;;;;;;;;5070628;28;20075;-80
2022/08/19 03:19:44;;;;;;;103.95;53.78;;;;;;;;;;5088958;28;20044;-78
2022/08/19 03:22:14;;;;;;;107.47;54.22;;;;;;;;;;5088068;28;20055;-79
2022/08/19 03:24:40;;;;;;;101.95;54.30;;;;;;;;;;5089790;28;20037;-78
2022/08/19 03:27:06;;;;;;;107.38;53.53;;;;;;;;;;5088639;28;20118;-79
2022/08/19 03:29:37;;;;;;;103.20;52.03;;;;;;;;;;5089845;28;20048;-79
2022/08/19 03:32:09;;;;;;;100.78;52.63;;;;;;;;;;5085408;28;20048;-76
2022/08/19 03:34:56;;;;;;;115.10;56.00;;;;;;;;;;5094754;28;20072;-80
2022/08/19 03:37:23;;;;;;;116.40;56.22;;;;;;;;;;5101331;28;20110;-79
2022/08/19 03:39:51;;;;;;;114.03;55.60;;;;;;;;;;5075566;28;20056;-79
2022/08/19 03:42:17;;;;;;;119.25;58.55;;;;;;;;;;5077792;28;20108;-78
2022/08/19 03:45:04;;;;;;;114.40;57.42;;;;;;;;;;5098693;28;20071;-79
2022/08/19 03:47:30;;;;;;;120.45;56.50;;;;;;;;;;5083832;28;20052;-79
2022/08/19 03:49:57;;;;;;;118.03;57.58;;;;;;;;;;5082977;28;20048;-79
2022/08/19 03:52:23;;;;;;;113.20;55.95;;;;;;;;;;5081658;28;20052;-80
2022/08/19 03:54:50;;;;;;;123.07;57.33;;;;;;;;;;5097251;28;20044;-80
2022/08/19 03:57:16;;;;;;;126.38;57.40;;;;;;;;;;5098407;28;20089;-78
2022/08/19 03:59:45;;;;;;;135.60;60.30;;;;;;;;;;5091173;28;20040;-78
2022/08/19 04:02:12;;;;;;;162.10;59.97;;;;;;;;;;5113681;28;20510;-79
2022/08/19 04:04:40;;;;;;;231.75;63.05;;;;;;;;;;5107454;28;20048;-80
2022/08/19 04:07:06;;;;;;;173.10;63.50;;;;;;;;;;5089766;28;20048;-78
2022/08/19 04:09:33;;;;;;;196.45;66.55;;;;;;;;;;5086293;28;20079;-79
2022/08/19 04:12:00;;;;;;;294.83;64.80;;;;;;;;;;5076823;28;20048;-78
2022/08/19 04:14:29;;;;;;;244.25;68.60;;;;;;;;;;5112048;28;20032;-80
2022/08/19 04:16:57;;;;;;;313.20;67.13;;;;;;;;;;5102621;28;20420;-78
2022/08/19 04:19:23;;;;;;;303.88;69.93;;;;;;;;;;5104441;28;20055;-79
2022/08/19 04:21:51;;;;;;;396.02;70.35;;;;;;;;;;5103109;28;20040;-81
2022/08/19 04:24:18;;;;;;;260.60;68.78;;;;;;;;;;5103644;28;20473;-78
2022/08/19 04:26:47;;;;;;;376.55;67.07;;;;;;;;;;5099903;28;20048;-77
2022/08/19 04:29:18;;;;;;;261.60;69.00;;;;;;;;;;5100671;28;20048;-79
2022/08/19 04:31:45;;;;;;;428.15;67.90;;;;;;;;;;5093879;28;20390;-79
2022/08/19 04:34:13;;;;;;;496.63;70.45;;;;;;;;;;5076614;28;20071;-80
2022/08/19 04:36:40;;;;;;;544.63;71.53;;;;;;;;;;5095180;28;20649;-79
2022/08/19 04:39:09;;;;;;;401.58;66.68;;;;;;;;;;5096628;28;20047;-80
2022/08/19 04:44:20;;;;;;;334.52;69.03;;;;;;;;;;5097566;28;20083;-80
2022/08/19 04:46:48;;;;;;;296.20;68.50;;;;;;;;;;5097157;28;20623;-81
2022/08/19 04:49:18;;;;;;;240.90;66.07;;;;;;;;;;5098305;28;20123;-79
2022/08/19 04:51:47;;;;;;;271.77;65.32;;;;;;;;;;5097525;28;20044;-79
2022/08/19 04:54:14;;;;;;;251.25;66.00;;;;;;;;;;5097775;28;20048;-80
2022/08/19 04:56:54;;;;;;;248.77;64.28;;;;;;;;;;5082602;28;20067;-80
2022/08/19 04:59:20;;;;;;;230.23;63.70;;;;;;;;;;5077172;28;20087;-80
2022/08/19 05:01:49;;;;;;;316.75;67.38;;;;;;;;;;5075887;28;20512;-80
2022/08/19 05:04:19;;;;;;;297.00;67.35;;;;;;;;;;5077761;28;20140;-80
2022/08/19 05:06:47;;;;;;;204.90;63.88;;;;;;;;;;5081640;28;20650;-79
2022/08/19 05:09:14;;;;;;;246.38;64.47;;;;;;;;;;5083970;28;20142;-79
2022/08/19 05:11:41;;;;;;;205.10;62.33;;;;;;;;;;5098696;28;20101;-78
2022/08/19 05:14:08;;;;;;;194.57;62.00;;;;;;;;;;5088307;28;20052;-79
2022/08/19 05:16:34;;;;;;;178.65;58.60;;;;;;;;;;5108842;28;20052;-79
2022/08/19 05:24:33;;;;;;;163.50;57.47;;;;;;;;;;5112385;28;20052;-78
2022/08/19 05:27:02;;;;;;;152.07;55.67;;;;;;;;;;5113275;28;20028;-78
2022/08/19 05:29:29;;;;;;;126.22;52.20;;;;;;;;;;5112510;28;20039;-80
2022/08/19 05:32:04;;;;;;;122.50;51.58;;;;;;;;;;5107870;28;20144;-80
2022/08/19 05:34:32;;;;;;;130.40;53.15;;;;;;;;;;5086017;28;20048;-81
2022/08/19 05:36:59;;;;;;;141.30;54.88;;;;;;;;;;5084698;28;20054;-77
2022/08/19 05:39:26;;;;;;;129.90;54.40;;;;;;;;;;5095890;28;20202;-80
2022/08/19 05:41:56;;;;;;;147.80;55.83;;;;;;;;;;5091549;28;20481;-80
2022/08/19 05:44:24;;;;;;;133.77;54.08;;;;;;;;;;5075790;28;20044;-78
2022/08/19 05:46:54;;;;;;;133.43;54.03;;;;;;;;;;5093880;28;20094;-78
2022/08/19 05:49:25;;;;;;;160.68;58.80;;;;;;;;;;5094512;28;20482;-79
2022/08/19 05:51:51;;;;;;;157.90;60.17;;;;;;;;;;5094700;28;20400;-79
2022/08/19 05:54:18;;;;;;;161.57;61.35;;;;;;;;;;5092315;28;20056;-77
2022/08/19 05:56:47;;;;;;;161.82;59.67;;;;;;;;;;5080706;28;20441;-79
2022/08/19 05:59:14;;;;;;;140.45;57.13;;;;;;;;;;5078021;28;20481;-80
2022/08/19 06:01:42;;;;;;;124.78;54.22;;;;;;;;;;5072578;28;20533;-78
2022/08/19 06:04:09;;;;;;;119.60;53.25;;;;;;;;;;5072150;28;20079;-80
2022/08/19 06:06:35;;;;;;;115.03;51.97;;;;;;;;;;5080632;28;20067;-78
2022/08/19 06:09:03;;;;;;;115.60;52.28;;;;;;;;;;5079387;28;20107;-79
2022/08/19 06:11:35;;;;;;;112.03;50.78;;;;;;;;;;5087992;28;20052;-79
2022/08/19 06:14:04;;;;;;;111.28;50.97;;;;;;;;;;5087647;28;20090;-79
2022/08/19 06:16:33;;;;;;;113.22;49.45;;;;;;;;;;5082314;28;20083;-80
2022/08/19 06:19:00;;;;;;;98.45;47.38;;;;;;;;;;5079637;28;20059;-80
2022/08/19 06:21:28;;;;;;;112.20;48.47;;;;;;;;;;5072326;28;20135;-80
2022/08/19 06:23:56;;;;;;;109.80;48.65;;;;;;;;;;5073982;28;20074;-79
2022/08/19 06:26:23;;;;;;;110.60;48.58;;;;;;;;;;5073997;28;20076;-79
2022/08/19 06:28:50;;;;;;;96.82;44.80;;;;;;;;;;5075667;28;20037;-79
2022/08/19 06:31:17;;;;;;;105.10;46.90;;;;;;;;;;5081486;28;20067;-78
2022/08/19 06:33:44;;;;;;;97.68;45.55;;;;;;;;;;5076569;28;20104;-79
2022/08/19 06:36:31;;;;;;;99.72;46.03;;;;;;;;;;5079693;28;20059;-79
2022/08/19 06:38:58;;;;;;;90.20;43.20;;;;;;;;;;5064325;28;20127;-79
2022/08/19 06:41:25;;;;;;;85.35;42.90;;;;;;;;;;5066187;28;20056;-79
2022/08/19 06:43:52;;;;;;;87.55;43.20;;;;;;;;;;5082839;28;20049;-78
2022/08/19 06:46:22;;;;;;;81.05;41.67;;;;;;;;;;5087716;28;20059;-78
2022/08/19 06:48:48;;;;;;;88.53;42.90;;;;;;;;;;5089897;28;20045;-78
2022/08/19 06:51:18;;;;;;;79.13;40.42;;;;;;;;;;5101509;28;20043;-78
2022/08/19 06:53:48;;;;;;;89.35;42.00;;;;;;;;;;5105377;28;20071;-80
2022/08/19 06:56:21;;;;;;;90.55;42.40;;;;;;;;;;5101134;28;20055;-80
2022/08/19 06:58:51;;;;;;;94.97;42.95;;;;;;;;;;5102575;28;20069;-80
2022/08/19 07:01:18;;;;;;;97.13;43.45;;;;;;;;;;5099415;28;20078;-78
2022/08/19 07:03:46;;;;;;;112.20;46.13;;;;;;;;;;5100050;28;20044;-77
2022/08/19 07:06:17;;;;;;;123.10;48.15;;;;;;;;;;5084665;28;20054;-77
2022/08/19 07:09:04;;;;;;;131.35;51.22;;;;;;;;;;5102378;28;20047;-80
2022/08/19 07:11:32;;;;;;;130.73;49.70;;;;;;;;;;5101685;28;20039;-80
2022/08/19 07:13:59;;;;;;;129.57;52.63;;;;;;;;;;5105547;28;20052;-80
2022/08/19 07:16:27;;;;;;;108.25;48.17;;;;;;;;;;5116756;28;20044;-78
2022/08/19 07:18:56;;;;;;;96.70;45.88;;;;;;;;;;5100434;28;20044;-78
2022/08/19 07:21:27;;;;;;;90.28;46.15;;;;;;;;;;5104789;28;20044;-77
2022/08/19 07:23:55;;;;;;;100.03;47.97;;;;;;;;;;5101071;28;20039;-80
2022/08/19 07:26:23;;;;;;;105.45;49.35;;;;;;;;;;5103388;28;20112;-79
2022/08/19 07:28:53;;;;;;;144.35;57.30;;;;;;;;;;5101679;28;20327;-79
2022/08/19 07:31:21;;;;;;;132.50;57.80;;;;;;;;;;5101825;28;20154;-80
2022/08/19 07:33:50;;;;;;;145.05;58.80;;;;;;;;;;5100389;28;20462;-77
2022/08/19 07:36:21;;;;;;;133.73;57.20;;;;;;;;;;5101392;28;20143;-78
2022/08/19 07:38:51;;;;;;;130.90;57.45;;;;;;;;;;5100474;28;20126;-79
2022/08/19 07:41:21;;;;;;;115.80;54.97;;;;;;;;;;5099167;28;20048;-77
2022/08/19 07:43:49;;;;;;;119.40;54.95;;;;;;;;;;5082004;28;20068;-80
2022/08/19 07:46:16;;;;;;;111.65;55.00;;;;;;;;;;5087484;28;20065;-80
2022/08/19 07:48:45;;;;;;;90.78;48.63;;;;;;;;;;5101258;28;20052;-79
2022/08/19 07:51:13;;;;;;;77.20;43.97;;;;;;;;;;5101627;28;20069;-79
2022/08/19 07:54:00;;;;;;;63.20;39.17;;;;;;;;;;5103721;28;20111;-81
2022/08/19 07:56:26;;;;;;;63.92;39.85;;;;;;;;;;5096661;28;20044;-79
2022/08/19 07:58:53;;;;;;;57.95;36.95;;;;;;;;;;5105898;28;20044;-76
2022/08/19 08:01:21;;;;;;;55.92;35.67;;;;;;;;;;5102473;28;20090;-80
2022/08/19 08:09:21;;;;;;;53.88;35.28;;;;;;;;;;5105357;28;20488;-79
2022/08/19 08:11:51;;;;;;;49.15;33.00;;;;;;;;;;5092248;28;20064;-80
2022/08/19 08:14:26;;;;;;;48.97;35.13;;;;;;;;;;5091728;28;20044;-79
2022/08/19 08:17:03;;;;;;;50.50;35.75;;;;;;;;;;5086214;28;20048;-80
2022/08/19 08:19:36;;;;;;;;;;;;;;;;;;5087040;28;20044;-79
2022/08/19 08:22:02;;;;;;;61.50;37.60;;;;;;;;;;5084541;28;19924;-80
2022/08/19 08:24:33;;;;;;;54.40;38.25;;;;;;;;;;5086841;28;20061;-79
2022/08/19 08:27:00;;;;;;;60.20;40.00;;;;;;;;;;5085709;28;20044;-80
2022/08/19 08:29:27;;;;;;;56.90;37.90;;;;;;;;;;5082140;28;20109;-79
2022/08/19 08:32:01;;;;;;;60.30;38.75;;;;;;;;;;5082794;28;20047;-80
2022/08/19 08:34:27;;;;;;;62.17;40.70;;;;;;;;;;5078480;28;20086;-79
2022/08/19 08:36:54;;;;;;;72.65;45.38;;;;;;;;;;5079932;28;20045;-81
2022/08/19 08:39:21;;;;;;;72.45;46.42;;;;;;;;;;5080433;28;20147;-80
2022/08/19 08:42:05;;;;;;;83.35;49.03;;;;;;;;;;5080530;28;20087;-79
2022/08/19 08:44:51;;;;;;;83.55;52.17;;;;;;;;;;5092800;28;20603;-79
2022/08/19 08:47:25;;;;;;;100.57;56.45;;;;;;;;;;5103369;28;20052;-79
2022/08/19 08:49:53;;;;;;;93.05;56.38;;;;;;;;;;5104770;28;20051;-80
2022/08/19 08:52:22;;;;;;;97.97;58.33;;;;;;;;;;5103329;28;20116;-79
2022/08/19 08:54:51;;;;;;;104.00;59.05;;;;;;;;;;5098468;28;20111;-80
2022/08/19 08:57:43;;;;;;;104.10;59.33;;;;;;;;;;5097637;28;20108;-80
2022/08/19 09:00:14;;;;;;;97.13;58.40;;;;;;;;;;5085105;28;20087;-79
2022/08/19 09:02:41;;;;;;;98.00;59.97;;;;;;;;;;5079928;28;20054;-78
2022/08/19 09:05:09;;;;;;;102.50;60.30;;;;;;;;;;5095430;28;20055;-78
2022/08/19 09:07:53;;;;;;;108.43;59.03;;;;;;;;;;5101344;28;20173;-79
2022/08/19 09:10:33;;;;;;;107.53;60.80;;;;;;;;;;5101210;28;20048;-81
2022/08/19 09:13:06;;;;;;;105.55;58.60;;;;;;;;;;5081324;28;20193;-79
2022/08/19 09:15:38;;;;;;;109.53;60.78;;;;;;;;;;5087950;28;20052;-79
2022/08/19 09:18:06;;;;;;;101.25;59.33;;;;;;;;;;5082243;28;20303;-79
2022/08/19 09:20:40;;;;;;;93.60;56.25;;;;;;;;;;5064625;28;20083;-80
2022/08/19 09:23:10;;;;;;;83.82;53.20;;;;;;;;;;5082354;28;20048;-81
2022/08/19 09:25:37;;;;;;;81.15;51.80;;;;;;;;;;5082839;28;20131;-78
2022/08/19 09:28:03;;;;;;;69.82;45.50;;;;;;;;;;5064420;28;20045;-80
2022/08/19 09:30:34;;;;;;;62.40;42.65;;;;;;;;;;5080678;28;20227;-80
2022/08/19 09:33:01;;;;;;;60.15;40.95;;;;;;;;;;5082444;28;20072;-79
2022/08/19 09:35:29;;;;;;;51.25;36.15;;;;;;;;;;5082272;28;20044;-79
2022/08/19 09:37:57;;;;;;;52.47;35.85;;;;;;;;;;5080142;28;20107;-78
2022/08/19 09:40:25;;;;;;;54.58;38.00;;;;;;;;;;5080937;28;20091;-80
2022/08/19 09:42:56;;;;;;;57.45;40.78;;;;;;;;;;5079807;28;20071;-79
2022/08/19 09:45:23;;;;;;;64.63;41.53;;;;;;;;;;5062316;28;20612;-79
2022/08/19 09:47:51;;;;;;;63.78;42.83;;;;;;;;;;5067135;28;20048;-80
2022/08/19 09:50:21;;;;;;;72.90;44.15;;;;;;;;;;5070193;28;20098;-77
2022/08/19 09:53:11;;;;;;;69.53;45.50;;;;;;;;;;5084360;28;20672;-80
2022/08/19 09:55:41;;;;;;;68.55;45.28;;;;;;;;;;5091743;28;20065;-79
2022/08/19 09:58:08;;;;;;;70.70;44.80;;;;;;;;;;5103125;28;20052;-78
2022/08/19 10:00:36;;;;;;;77.95;47.30;;;;;;;;;;5103394;28;20048;-80
2022/08/19 10:03:03;;;;;;;75.90;46.05;;;;;;;;;;5101745;28;20044;-78
2022/08/19 10:05:50;;;;;;;81.00;50.65;;;;;;;;;;5093709;28;20068;-79
2022/08/19 10:08:25;;;;;;;92.97;52.90;;;;;;;;;;5073724;28;20044;-80
2022/08/19 10:10:52;;;;;;;103.03;56.95;;;;;;;;;;5094233;28;20052;-79
2022/08/19 10:13:23;;;;;;;104.75;57.53;;;;;;;;;;5095279;28;20064;-78
2022/08/19 10:15:52;;;;;;;104.40;58.17;;;;;;;;;;5094385;28;20108;-78
2022/08/19 10:18:21;;;;;;;115.32;61.03;;;;;;;;;;5061834;28;20118;-78
2022/08/19 10:20:49;;;;;;;121.70;64.70;;;;;;;;;;5075241;28;20064;-79
2022/08/19 10:23:17;;;;;;;121.07;65.75;;;;;;;;;;5077919;28;20100;-79
2022/08/19 10:25:44;;;;;;;126.05;66.63;;;;;;;;;;5080307;28;20484;-80
2022/08/19 10:28:13;;;;;;;126.43;67.95;;;;;;;;;;5080594;28;20049;-78
2022/08/19 10:30:40;;;;;;;121.35;66.72;;;;;;;;;;5088049;28;20056;-76
2022/08/19 10:33:06;;;;;;;119.18;64.03;;;;;;;;;;5098036;28;20048;-79
2022/08/19 10:35:37;;;;;;;79.28;49.65;;;;;;;;;;5097974;28;20090;-78
2022/08/19 10:38:22;;;;;;;;;;;;;;;;;;5093158;28;20079;-81
2022/08/19 10:40:57;;;;;;;61.60;41.25;;;;;;;;;;5090976;28;19984;-79
2022/08/19 10:43:24;;;;;;;62.03;41.08;;;;;;;;;;5091001;28;20281;-79
2022/08/19 10:45:58;;;;;;;60.47;40.58;;;;;;;;;;5090052;28;20609;-78
2022/08/19 10:48:24;;;;;;;72.00;45.45;;;;;;;;;;5096300;28;20040;-79
2022/08/19 10:53:49;;;;;;;;;;;;;;;;;;5108952;28;20048;-77
2022/08/19 10:59:15;;;;;;;88.40;54.67;;;;;;;;;;5048316;28;20142;-78
2022/08/19 11:01:42;;;;;;;98.68;59.00;;;;;;;;;;5088554;28;20118;-81
2022/08/19 11:04:13;;;;;;;100.70;58.72;;;;;;;;;;5082522;28;20045;-77
2022/08/19 11:06:40;;;;;;;106.90;60.35;;;;;;;;;;5084330;28;20053;-82
2022/08/19 11:09:07;;;;;;;112.22;64.75;;;;;;;;;;5065954;28;20048;-79
2022/08/19 11:11:39;;;;;;;127.22;67.53;;;;;;;;;;5092867;28;20481;-79
2022/08/19 11:14:10;;;;;;;133.50;71.90;;;;;;;;;;5099074;28;20048;-80
2022/08/19 11:16:40;;;;;;;126.68;69.72;;;;;;;;;;5099935;28;20086;-78
2022/08/19 11:19:07;;;;;;;124.65;67.00;;;;;;;;;;5090079;28;20057;-79
2022/08/19 11:21:38;;;;;;;118.38;65.30;;;;;;;;;;5060952;28;20048;-79
2022/08/19 11:24:07;;;;;;;99.07;57.15;;;;;;;;;;5077890;28;20044;-78
2022/08/19 11:26:33;;;;;;;95.15;54.78;;;;;;;;;;5078009;28;20051;-79
2022/08/19 11:29:00;;;;;;;111.15;59.10;;;;;;;;;;5078103;28;20050;-78
2022/08/19 11:31:28;;;;;;;93.30;56.63;;;;;;;;;;5076947;28;20143;-80
2022/08/19 11:33:59;;;;;;;96.60;57.65;;;;;;;;;;5078783;28;20504;-79
2022/08/19 11:36:26;;;;;;;100.70;56.10;;;;;;;;;;5076284;28;20052;-78
2022/08/19 11:38:53;;;;;;;101.20;55.33;;;;;;;;;;5075887;28;20077;-77
2022/08/19 11:41:22;;;;;;;101.15;57.38;;;;;;;;;;5071930;28;20076;-77
2022/08/19 11:43:49;;;;;;;101.20;58.53;;;;;;;;;;5054295;28;20091;-79
2022/08/19 11:46:16;;;;;;;103.18;58.60;;;;;;;;;;5074022;28;20517;-77
2022/08/19 11:48:43;;;;;;;110.15;60.63;;;;;;;;;;5055082;28;20068;-79
2022/08/19 11:51:14;;;;;;;116.57;62.05;;;;;;;;;;5074730;28;20044;-78
2022/08/19 11:53:41;;;;;;;116.13;63.47;;;;;;;;;;5078069;28;20106;-79
2022/08/19 11:56:08;;;;;;;131.25;67.57;;;;;;;;;;5084492;28;20080;-80
2022/08/19 11:58:35;;;;;;;133.30;70.63;;;;;;;;;;5071996;28;20090;-80
2022/08/19 12:01:05;;;;;;;134.38;71.97;;;;;;;;;;5072478;28;20071;-79
2022/08/19 12:03:31;;;;;;;139.10;73.60;;;;;;;;;;5072383;28;20048;-78
2022/08/19 12:05:58;;;;;;;137.55;75.15;;;;;;;;;;5072578;28;20041;-80
2022/08/19 12:08:24;;;;;;;129.23;71.50;;;;;;;;;;5074940;28;20053;-77
2022/08/19 12:10:54;;;;;;;136.27;73.32;;;;;;;;;;5079406;28;20133;-79
2022/08/19 12:13:21;;;;;;;125.03;69.85;;;;;;;;;;5093781;28;20079;-80
2022/08/19 12:15:47;;;;;;;138.05;74.18;;;;;;;;;;5094394;28;20119;-81
2022/08/19 12:18:14;;;;;;;146.38;75.18;;;;;;;;;;5094814;28;20048;-79
2022/08/19 12:20:41;;;;;;;143.13;76.13;;;;;;;;;;5094415;28;20082;-80
2022/08/19 12:23:09;;;;;;;138.43;73.72;;;;;;;;;;5091633;28;20079;-79
2022/08/19 12:25:36;;;;;;;137.40;73.32;;;;;;;;;;5095191;28;20082;-80
2022/08/19 12:28:03;;;;;;;127.15;71.97;;;;;;;;;;5094017;28;20074;-80
2022/08/19 12:30:30;;;;;;;129.20;71.60;;;;;;;;;;5093243;28;20192;-76
2022/08/19 12:32:57;;;;;;;128.38;69.18;;;;;;;;;;5092746;28;20054;-79
2022/08/19 12:35:23;;;;;;;130.13;71.07;;;;;;;;;;5092994;28;20044;-80
2022/08/19 12:37:49;;;;;;;128.77;70.22;;;;;;;;;;5095159;28;20056;-80
2022/08/19 12:40:22;;;;;;;136.48;72.25;;;;;;;;;;5093045;28;20044;-79
2022/08/19 12:42:51;;;;;;;131.75;69.88;;;;;;;;;;5095871;28;20109;-79
2022/08/19 12:45:18;;;;;;;136.05;71.75;;;;;;;;;;5095460;28;20068;-80
2022/08/19 12:47:46;;;;;;;130.60;70.75;;;;;;;;;;5095749;28;20044;-80
2022/08/19 12:50:14;;;;;;;123.35;67.05;;;;;;;;;;5093538;28;20683;-79
2022/08/19 12:52:42;;;;;;;114.70;65.55;;;;;;;;;;5088186;28;20071;-80
2022/08/19 12:55:08;;;;;;;113.40;63.80;;;;;;;;;;5082215;28;20052;-80
2022/08/19 12:57:35;;;;;;;116.63;61.40;;;;;;;;;;5083923;28;20067;-80
2022/08/19 13:00:13;;;;;;;112.32;64.35;;;;;;;;;;5086091;28;20070;-79
2022/08/19 13:02:41;;;;;;;109.88;64.82;;;;;;;;;;5086632;28;20040;-79
2022/08/19 13:05:11;;;;;;;109.30;62.03;;;;;;;;;;5064815;28;20082;-80
2022/08/19 13:07:41;;;;;;;110.60;63.25;;;;;;;;;;5085925;28;20056;-80
2022/08/19 13:10:08;;;;;;;113.65;63.53;;;;;;;;;;5088043;28;20107;-79
2022/08/19 13:12:35;;;;;;;115.05;65.65;;;;;;;;;;5068642;28;20052;-79
2022/08/19 13:15:02;;;;;;;112.15;64.25;;;;;;;;;;5075048;28;20753;-79
2022/08/19 13:17:37;;;;;;;109.45;61.38;;;;;;;;;;5085953;28;20044;-79
2022/08/19 13:20:05;;;;;;;104.82;60.63;;;;;;;;;;5088554;28;20055;-80
2022/08/19 13:22:31;;;;;;;101.80;60.58;;;;;;;;;;5091499;28;20052;-79
2022/08/19 13:24:58;;;;;;;96.03;58.92;;;;;;;;;;5091809;28;20056;-80
2022/08/19 13:27:24;;;;;;;99.15;57.33;;;;;;;;;;5082411;28;20312;-80
2022/08/19 13:35:21;;;;;;;104.47;61.35;;;;;;;;;;5089566;28;20059;-79
2022/08/19 13:37:47;;;;;;;107.50;61.17;;;;;;;;;;5076126;28;20106;-79
2022/08/19 13:40:17;;;;;;;114.25;62.75;;;;;;;;;;5091946;28;20048;-77
2022/08/19 13:42:46;;;;;;;107.13;59.42;;;;;;;;;;5069572;28;20074;-79
2022/08/19 13:45:14;;;;;;;107.38;58.88;;;;;;;;;;5087178;28;20044;-79
2022/08/19 13:47:44;;;;;;;110.20;60.22;;;;;;;;;;5077490;28;20052;-78
2022/08/19 13:50:12;;;;;;;109.10;59.40;;;;;;;;;;5106499;28;20032;-77
2022/08/19 13:52:39;;;;;;;107.35;60.22;;;;;;;;;;5084341;28;20040;-80
2022/08/19 13:55:06;;;;;;;106.68;59.00;;;;;;;;;;5081928;28;20075;-78
2022/08/19 13:57:32;;;;;;;101.97;58.75;;;;;;;;;;5084743;28;20056;-79
2022/08/19 13:59:59;;;;;;;99.60;58.20;;;;;;;;;;5079815;28;20079;-79
2022/08/19 14:02:26;;;;;;;102.00;59.05;;;;;;;;;;5076509;28;20087;-80
2022/08/19 14:04:52;;;;;;;93.40;54.60;;;;;;;;;;5070306;28;20036;-79
2022/08/19 14:07:19;;;;;;;89.70;53.75;;;;;;;;;;5074698;28;20044;-80
2022/08/19 14:09:48;;;;;;;88.75;52.60;;;;;;;;;;5077043;28;20411;-79
2022/08/19 14:12:17;;;;;;;88.38;53.95;;;;;;;;;;5083944;28;20622;-80
2022/08/19 14:14:54;;;;;;;91.97;53.45;;;;;;;;;;5086671;28;20048;-80
2022/08/19 14:17:21;;;;;;;97.13;57.67;;;;;;;;;;5106184;28;20048;-81
2022/08/19 14:19:47;;;;;;;92.88;54.97;;;;;;;;;;5094286;28;20059;-80
2022/08/19 14:22:14;;;;;;;95.38;55.55;;;;;;;;;;5092777;28;20052;-80
2022/08/19 14:24:47;;;;;;;99.88;56.60;;;;;;;;;;5094908;28;20044;-81
2022/08/19 14:27:14;;;;;;;90.93;54.92;;;;;;;;;;5078650;28;20048;-80
2022/08/19 14:29:40;;;;;;;89.82;52.97;;;;;;;;;;5095527;28;20044;-80
2022/08/19 14:32:07;;;;;;;93.28;55.30;;;;;;;;;;5082277;28;20044;-81
2022/08/19 14:34:37;;;;;;;85.90;53.30;;;;;;;;;;5082472;28;20614;-81
2022/08/19 14:37:03;;;;;;;88.40;51.75;;;;;;;;;;5085418;28;20084;-81
2022/08/19 14:39:30;;;;;;;82.50;50.05;;;;;;;;;;5066304;28;20116;-81
2022/08/19 14:41:57;;;;;;;79.05;49.22;;;;;;;;;;5087021;28;20103;-79
2022/08/19 14:44:23;;;;;;;75.72;47.90;;;;;;;;;;5074918;28;20048;-79
2022/08/19 14:46:50;;;;;;;74.10;47.60;;;;;;;;;;5085098;28;20053;-81
2022/08/19 14:49:19;;;;;;;81.82;49.20;;;;;;;;;;5095432;28;20047;-80